createdAt,value
2023-05-15T00:02:21.417Z,12.60
2023-05-15T00:04:50.226Z,12.60
2023-05-15T00:07:18.826Z,12.60
2023-05-15T00:09:47.234Z,12.60
2023-05-15T00:12:15.976Z,12.50
2023-05-15T00:14:46.010Z,12.50
2023-05-15T00:17:14.353Z,12.50
2023-05-15T00:19:42.701Z,12.40
2023-05-15T00:22:11.561Z,12.40
2023-05-15T00:24:40.063Z,12.30
2023-05-15T00:27:08.566Z,12.30
2023-05-15T00:29:37.122Z,12.30
2023-05-15T00:32:07.870Z,12.20
2023-05-15T00:34:36.511Z,12.20
2023-05-15T00:37:05.088Z,12.10
2023-05-15T00:39:33.551Z,12.10
2023-05-15T00:42:04.025Z,12.10
2023-05-15T00:44:33.346Z,12.00
2023-05-15T00:47:03.767Z,12.00
2023-05-15T00:49:35.649Z,12.00
2023-05-15T00:52:05.670Z,12.00
2023-05-15T00:54:34.407Z,11.90
2023-05-15T00:57:05.456Z,11.90
2023-05-15T00:59:34.971Z,11.90
2023-05-15T01:02:04.458Z,11.80
2023-05-15T01:04:34.555Z,11.80
2023-05-15T01:07:03.572Z,11.80
2023-05-15T01:09:33.882Z,11.80
2023-05-15T01:12:03.560Z,11.80
2023-05-15T01:14:32.218Z,11.80
2023-05-15T01:17:00.963Z,11.70
2023-05-15T01:19:29.447Z,11.70
2023-05-15T01:22:24.159Z,11.70
2023-05-15T01:25:39.153Z,11.60
2023-05-15T01:28:13.750Z,11.60
2023-05-15T01:30:45.147Z,11.50
2023-05-15T01:33:22.362Z,11.40
2023-05-15T01:35:57.219Z,11.40
2023-05-15T01:38:31.287Z,11.30
2023-05-15T01:41:07.984Z,11.20
2023-05-15T01:43:43.012Z,11.20
2023-05-15T01:46:14.736Z,11.20
2023-05-15T01:48:45.858Z,11.10
2023-05-15T01:51:16.448Z,11.10
2023-05-15T01:53:46.329Z,11.10
2023-05-15T01:56:16.563Z,11.10
2023-05-15T01:58:46.497Z,11.00
2023-05-15T02:01:17.156Z,11.00
2023-05-15T02:03:47.596Z,11.00
2023-05-15T02:06:16.420Z,11.00
2023-05-15T02:08:46.188Z,11.00
2023-05-15T02:11:16.192Z,11.00
2023-05-15T02:13:46.492Z,11.00
2023-05-15T02:16:15.139Z,11.00
2023-05-15T02:18:43.820Z,10.80
2023-05-15T02:21:12.938Z,10.90
2023-05-15T02:23:41.927Z,10.90
2023-05-15T02:26:32.157Z,10.90
2023-05-15T02:29:15.115Z,10.90
2023-05-15T02:31:52.424Z,10.90
2023-05-15T02:34:28.545Z,10.90
2023-05-15T02:37:02.030Z,10.80
2023-05-15T02:39:31.565Z,10.80
2023-05-15T02:42:02.879Z,10.80
2023-05-15T02:44:33.823Z,10.80
2023-05-15T02:47:03.272Z,10.70
2023-05-15T02:49:31.809Z,10.70
2023-05-15T02:52:00.257Z,10.70
2023-05-15T02:54:28.652Z,10.70
2023-05-15T02:56:57.378Z,10.70
2023-05-15T02:59:26.215Z,10.80
2023-05-15T03:01:56.405Z,10.80
2023-05-15T03:04:25.422Z,10.80
2023-05-15T03:06:54.088Z,10.80
2023-05-15T03:09:22.466Z,10.80
2023-05-15T03:11:50.833Z,11.00
2023-05-15T03:14:19.317Z,11.20
2023-05-15T03:16:47.834Z,11.20
2023-05-15T03:19:19.155Z,11.10
2023-05-15T03:21:47.670Z,11.10
2023-05-15T03:24:16.165Z,11.10
2023-05-15T03:26:45.220Z,11.10
2023-05-15T03:29:14.156Z,11.10
2023-05-15T03:31:42.833Z,11.20
2023-05-15T03:34:11.266Z,11.20
2023-05-15T03:36:41.128Z,11.20
2023-05-15T03:39:09.722Z,11.20
2023-05-15T03:41:38.365Z,11.20
2023-05-15T03:44:07.273Z,11.20
2023-05-15T03:46:35.693Z,11.20
2023-05-15T03:49:04.230Z,11.30
2023-05-15T03:51:32.719Z,11.30
2023-05-15T03:54:05.378Z,11.40
2023-05-15T03:56:34.142Z,11.40
2023-05-15T03:59:02.780Z,11.50
2023-05-15T04:01:31.556Z,11.50
2023-05-15T04:04:00.352Z,11.60
2023-05-15T04:06:29.268Z,11.60
2023-05-15T04:08:57.959Z,11.60
2023-05-15T04:11:29.054Z,11.60
2023-05-15T04:13:57.912Z,11.70
2023-05-15T04:16:26.681Z,11.80
2023-05-15T04:18:55.320Z,11.80
2023-05-15T04:21:23.788Z,11.90
2023-05-15T04:23:52.442Z,12.00
2023-05-15T04:26:20.977Z,12.10
2023-05-15T04:29:02.931Z,12.20
2023-05-15T04:31:32.988Z,12.30
2023-05-15T04:34:01.739Z,12.40
2023-05-15T04:36:30.244Z,12.50
2023-05-15T04:38:58.922Z,12.70
2023-05-15T04:41:28.187Z,12.90
2023-05-15T04:43:58.224Z,13.10
2023-05-15T04:46:26.978Z,13.40
2023-05-15T04:48:55.374Z,13.60
2023-05-15T04:51:23.975Z,13.80
2023-05-15T04:53:52.672Z,13.90
2023-05-15T04:56:21.625Z,14.00
2023-05-15T04:58:50.164Z,15.00
2023-05-15T05:01:20.168Z,14.20
2023-05-15T05:03:48.738Z,14.10
2023-05-15T05:06:17.198Z,14.10
2023-05-15T05:08:45.852Z,13.70
2023-05-15T05:11:14.418Z,14.30
2023-05-15T05:13:42.809Z,14.40
2023-05-15T05:16:11.640Z,14.80
2023-05-15T05:18:41.860Z,15.40
2023-05-15T05:21:11.536Z,15.90
2023-05-15T05:23:40.304Z,16.20
2023-05-15T05:26:08.573Z,16.70
2023-05-15T05:28:37.015Z,17.90
2023-05-15T05:31:06.427Z,19.20
2023-05-15T05:33:34.930Z,20.10
2023-05-15T05:36:05.413Z,20.70
2023-05-15T05:38:34.151Z,22.00
2023-05-15T05:41:03.203Z,23.60
2023-05-15T05:43:32.567Z,23.90
2023-05-15T05:46:01.292Z,25.70
2023-05-15T05:48:30.917Z,26.80
2023-05-15T05:51:00.059Z,27.50
2023-05-15T05:53:30.037Z,27.30
2023-05-15T05:55:58.604Z,26.80
2023-05-15T05:58:27.095Z,26.60
2023-05-15T06:00:55.809Z,27.50
2023-05-15T06:03:25.586Z,28.80
2023-05-15T06:05:54.116Z,29.20
2023-05-15T06:08:22.536Z,30.10
2023-05-15T06:10:52.293Z,30.90
2023-05-15T06:13:20.702Z,30.40
2023-05-15T06:15:49.323Z,29.80
2023-05-15T06:18:17.833Z,27.90
2023-05-15T06:20:47.083Z,27.30
2023-05-15T06:23:15.524Z,26.50
2023-05-15T06:25:44.219Z,26.10
2023-05-15T06:28:14.323Z,25.90
2023-05-15T06:30:43.154Z,26.50
2023-05-15T06:33:11.983Z,26.70
2023-05-15T06:35:40.592Z,26.30
2023-05-15T06:38:09.039Z,25.20
2023-05-15T06:40:37.561Z,24.70
2023-05-15T06:43:06.109Z,24.60
2023-05-15T06:45:36.315Z,24.30
2023-05-15T06:48:06.841Z,24.10
2023-05-15T06:50:37.791Z,23.90
2023-05-15T06:53:06.320Z,23.90
2023-05-15T06:55:36.662Z,23.90
2023-05-15T06:58:05.686Z,23.90
2023-05-15T07:00:35.620Z,24.00
2023-05-15T07:03:04.138Z,24.00
2023-05-15T07:05:32.721Z,23.70
2023-05-15T07:08:01.384Z,23.50
2023-05-15T07:10:29.757Z,23.50
2023-05-15T07:12:58.229Z,23.40
2023-05-15T07:15:26.773Z,23.20
2023-05-15T07:17:56.713Z,23.20
2023-05-15T07:20:28.243Z,22.60
2023-05-15T07:22:58.102Z,22.60
2023-05-15T07:25:27.287Z,22.60
2023-05-15T07:27:55.969Z,22.50
2023-05-15T07:30:27.718Z,22.50
2023-05-15T07:32:58.002Z,22.70
2023-05-15T07:35:27.437Z,23.60
2023-05-15T07:37:56.216Z,24.40
2023-05-15T07:40:24.883Z,24.70
2023-05-15T07:42:53.557Z,24.60
2023-05-15T07:45:22.455Z,24.40
2023-05-15T07:47:51.649Z,24.20
2023-05-15T07:50:21.801Z,24.00
2023-05-15T07:52:50.467Z,23.30
2023-05-15T07:55:19.261Z,22.60
2023-05-15T07:57:53.471Z,22.10
2023-05-15T08:00:23.338Z,21.60
2023-05-15T08:02:52.289Z,21.10
2023-05-15T08:05:22.316Z,20.90
2023-05-15T08:07:50.930Z,20.50
2023-05-15T08:10:19.802Z,20.30
2023-05-15T08:12:52.026Z,20.20
2023-05-15T08:15:20.929Z,20.10
2023-05-15T08:17:51.024Z,20.00
2023-05-15T08:20:19.622Z,20.10
2023-05-15T08:22:49.870Z,20.10
2023-05-15T08:25:18.761Z,19.90
2023-05-15T08:27:47.551Z,19.50
2023-05-15T08:30:16.507Z,19.70
2023-05-15T08:32:45.897Z,19.70
2023-05-15T08:35:14.944Z,20.00
2023-05-15T08:37:43.802Z,20.10
2023-05-15T08:40:14.889Z,20.20
2023-05-15T08:42:46.964Z,20.40
2023-05-15T08:45:16.042Z,20.70
2023-05-15T08:47:45.187Z,20.90
2023-05-15T08:50:15.876Z,21.00
2023-05-15T08:52:47.114Z,21.20
2023-05-15T08:55:18.075Z,21.30
2023-05-15T08:57:52.560Z,20.30
2023-05-15T09:00:22.558Z,20.90
2023-05-15T09:02:51.422Z,20.70
2023-05-15T09:05:20.594Z,20.50
2023-05-15T09:07:50.556Z,20.30
2023-05-15T09:10:21.239Z,20.20
2023-05-15T09:12:52.979Z,20.10
2023-05-15T09:15:25.540Z,20.00
2023-05-15T09:17:55.434Z,19.80
2023-05-15T09:20:28.948Z,19.80
2023-05-15T09:22:57.682Z,19.70
2023-05-15T09:25:39.636Z,19.80
2023-05-15T09:28:08.468Z,19.90
2023-05-15T09:30:43.576Z,19.90
2023-05-15T09:33:12.121Z,20.00
2023-05-15T09:35:41.109Z,20.10
2023-05-15T09:38:12.771Z,20.20
2023-05-15T09:40:43.251Z,20.40
2023-05-15T09:43:13.323Z,20.40
2023-05-15T09:45:41.924Z,20.50
2023-05-15T09:48:12.119Z,20.50
2023-05-15T09:50:42.618Z,20.60
2023-05-15T09:53:14.779Z,20.70
2023-05-15T09:55:44.849Z,20.80
2023-05-15T09:58:14.875Z,20.80
2023-05-15T10:00:47.728Z,21.00
2023-05-15T10:03:20.087Z,21.10
2023-05-15T10:05:49.172Z,22.40
2023-05-15T10:08:27.551Z,21.60
2023-05-15T10:11:00.187Z,21.50
2023-05-15T10:13:32.359Z,21.50
2023-05-15T10:16:02.369Z,21.70
2023-05-15T10:18:34.393Z,21.90
2023-05-15T10:21:04.579Z,22.30
2023-05-15T10:23:36.521Z,22.40
2023-05-15T10:26:15.685Z,22.30
2023-05-15T10:28:47.600Z,22.50
2023-05-15T10:31:16.821Z,22.70
2023-05-15T10:33:45.758Z,22.60
2023-05-15T10:36:16.563Z,22.90
2023-05-15T10:38:45.850Z,22.90
2023-05-15T10:41:19.154Z,22.80
2023-05-15T10:43:48.026Z,22.60
2023-05-15T10:46:16.982Z,22.20
2023-05-15T10:48:45.466Z,21.80
2023-05-15T10:51:18.270Z,21.60
2023-05-15T10:53:47.204Z,21.50
2023-05-15T10:56:17.713Z,21.30
2023-05-15T10:58:48.506Z,21.00
2023-05-15T11:01:31.886Z,20.70
2023-05-15T11:04:11.258Z,20.60
2023-05-15T11:06:40.487Z,20.40
2023-05-15T11:09:39.486Z,20.40
2023-05-15T11:12:11.829Z,20.10
2023-05-15T11:14:41.757Z,20.20
2023-05-15T11:17:11.348Z,19.80
2023-05-15T11:19:55.700Z,19.70
2023-05-15T11:22:28.718Z,20.00
2023-05-15T11:25:00.740Z,20.20
2023-05-15T11:27:32.014Z,20.60
2023-05-15T11:30:07.978Z,20.70
2023-05-15T11:32:49.543Z,20.60
2023-05-15T11:35:22.720Z,20.20
2023-05-15T11:37:53.984Z,20.90
2023-05-15T11:40:24.130Z,20.80
2023-05-15T11:43:09.026Z,20.70
2023-05-15T11:45:39.022Z,21.10
2023-05-15T11:48:09.664Z,21.30
2023-05-15T11:50:37.984Z,21.30
2023-05-15T11:53:07.899Z,21.30
2023-05-15T11:55:38.091Z,21.30
2023-05-15T11:58:12.965Z,21.40
2023-05-15T12:00:41.682Z,21.60
2023-05-15T12:03:17.616Z,21.90
2023-05-15T12:05:57.561Z,22.20
2023-05-15T12:08:32.089Z,21.90
2023-05-15T12:11:01.195Z,21.80
2023-05-15T12:13:31.919Z,21.90
2023-05-15T12:16:01.061Z,22.00
2023-05-15T12:18:29.562Z,22.10
2023-05-15T12:20:58.048Z,22.00
2023-05-15T12:23:28.792Z,21.80
2023-05-15T12:26:03.198Z,21.90
2023-05-15T12:28:36.915Z,22.00
2023-05-15T12:31:05.626Z,22.00
2023-05-15T12:33:34.275Z,22.00
2023-05-15T12:36:02.565Z,22.10
2023-05-15T12:38:31.167Z,22.20
2023-05-15T12:40:59.601Z,22.30
2023-05-15T12:43:28.183Z,21.90
2023-05-15T12:45:58.316Z,22.10
2023-05-15T12:48:32.119Z,22.40
2023-05-15T12:51:07.540Z,22.70
2023-05-15T12:53:36.244Z,22.70
2023-05-15T12:56:05.553Z,22.70
2023-05-15T12:58:34.779Z,22.90
2023-05-15T13:01:05.247Z,23.00
2023-05-15T13:03:34.179Z,23.10
2023-05-15T13:06:04.325Z,23.20
2023-05-15T13:08:32.629Z,23.30
2023-05-15T13:11:01.798Z,23.30
2023-05-15T13:13:48.718Z,23.20
2023-05-15T13:16:23.089Z,23.10
2023-05-15T13:18:51.767Z,23.30
2023-05-15T13:21:20.564Z,23.50
2023-05-15T13:23:48.978Z,23.40
2023-05-15T13:26:17.277Z,22.90
2023-05-15T13:28:45.562Z,23.10
2023-05-15T13:31:14.106Z,23.20
2023-05-15T13:33:43.971Z,23.70
2023-05-15T13:36:12.597Z,24.10
2023-05-15T13:38:40.995Z,24.40
2023-05-15T13:41:09.234Z,24.40
2023-05-15T13:43:37.705Z,24.60
2023-05-15T13:46:06.216Z,24.00
2023-05-15T13:48:34.490Z,23.10
2023-05-15T13:51:04.363Z,23.90
2023-05-15T13:53:32.846Z,23.60
2023-05-15T13:56:01.430Z,23.70
2023-05-15T13:58:29.705Z,23.00
2023-05-15T14:00:58.222Z,21.80
2023-05-15T14:03:26.817Z,21.10
2023-05-15T14:05:55.074Z,20.90
2023-05-15T14:08:24.762Z,20.50
2023-05-15T14:10:53.075Z,20.20
2023-05-15T14:13:21.850Z,19.90
2023-05-15T14:15:50.072Z,19.60
2023-05-15T14:18:18.348Z,19.50
2023-05-15T14:20:46.670Z,19.60
2023-05-15T14:23:15.599Z,19.50
2023-05-15T14:25:45.429Z,19.20
2023-05-15T14:28:13.702Z,19.00
2023-05-15T14:30:41.998Z,19.10
2023-05-15T14:33:10.504Z,19.20
2023-05-15T14:35:39.151Z,19.30
2023-05-15T14:38:07.621Z,19.30
2023-05-15T14:40:35.857Z,19.40
2023-05-15T14:43:06.251Z,19.40
2023-05-15T14:45:34.578Z,19.30
2023-05-15T14:48:03.177Z,19.30
2023-05-15T14:50:31.640Z,19.30
2023-05-15T14:53:00.083Z,19.20
2023-05-15T14:55:28.430Z,19.10
2023-05-15T14:57:56.667Z,19.20
2023-05-15T15:00:26.785Z,19.30
2023-05-15T15:02:55.479Z,19.40
2023-05-15T15:05:24.072Z,19.50
2023-05-15T15:08:11.105Z,19.60
2023-05-15T15:10:42.720Z,19.80
2023-05-15T15:13:13.002Z,19.80
2023-05-15T15:15:42.724Z,19.80
2023-05-15T15:18:11.208Z,19.80
2023-05-15T15:20:39.613Z,19.50
2023-05-15T15:23:07.815Z,19.40
2023-05-15T15:25:36.345Z,19.30
2023-05-15T15:28:04.966Z,19.30
2023-05-15T15:30:33.352Z,19.10
2023-05-15T15:33:03.141Z,19.00
2023-05-15T15:35:31.657Z,19.20
2023-05-15T15:38:00.004Z,19.40
2023-05-15T15:40:29.812Z,19.60
2023-05-15T15:42:58.300Z,19.70
2023-05-15T15:45:26.729Z,19.80
2023-05-15T15:47:55.193Z,19.80
2023-05-15T15:50:25.586Z,19.70
2023-05-15T15:52:54.059Z,19.60
2023-05-15T15:55:22.376Z,19.40
2023-05-15T15:57:50.860Z,19.40
2023-05-15T16:00:19.492Z,18.50
2023-05-15T16:02:47.858Z,19.40
2023-05-15T16:05:16.307Z,19.60
2023-05-15T16:07:47.879Z,19.60
2023-05-15T16:10:16.268Z,19.60
2023-05-15T16:12:45.628Z,19.30
2023-05-15T16:15:23.174Z,19.10
2023-05-15T16:17:54.135Z,19.10
2023-05-15T16:20:23.377Z,19.10
2023-05-15T16:22:53.117Z,19.10
2023-05-15T16:25:21.804Z,19.00
2023-05-15T16:27:50.124Z,18.90
2023-05-15T16:30:18.536Z,18.70
2023-05-15T16:32:48.610Z,18.60
2023-05-15T16:35:17.072Z,18.30
2023-05-15T16:37:45.459Z,18.20
2023-05-15T16:40:15.558Z,18.00
2023-05-15T16:42:43.813Z,17.90
2023-05-15T16:45:12.206Z,17.80
2023-05-15T16:47:41.409Z,17.80
2023-05-15T16:50:10.584Z,17.80
2023-05-15T16:52:45.176Z,17.70
2023-05-15T16:55:16.610Z,17.70
2023-05-15T16:57:45.333Z,17.60
2023-05-15T17:00:14.782Z,17.50
2023-05-15T17:02:43.919Z,17.60
2023-05-15T17:05:14.045Z,17.60
2023-05-15T17:07:48.404Z,17.00
2023-05-15T17:10:18.113Z,17.60
2023-05-15T17:12:46.624Z,17.40
2023-05-15T17:15:14.878Z,17.30
2023-05-15T17:17:43.050Z,17.30
2023-05-15T17:20:12.588Z,17.20
2023-05-15T17:22:40.724Z,17.00
2023-05-15T17:25:09.750Z,17.00
2023-05-15T17:27:41.455Z,16.90
2023-05-15T17:30:10.585Z,16.90
2023-05-15T17:32:39.809Z,16.80
2023-05-15T17:35:09.342Z,16.80
2023-05-15T17:37:37.966Z,16.60
2023-05-15T17:40:07.184Z,16.60
2023-05-15T17:42:36.098Z,16.60
2023-05-15T17:45:06.451Z,16.50
2023-05-15T17:47:34.808Z,16.60
2023-05-15T17:50:03.078Z,16.60
2023-05-15T17:52:31.289Z,16.60
2023-05-15T17:54:59.458Z,16.40
2023-05-15T17:57:27.789Z,16.30
2023-05-15T17:59:56.045Z,16.20
2023-05-15T18:02:25.846Z,16.20
2023-05-15T18:04:54.090Z,16.20
2023-05-15T18:07:22.323Z,16.10
2023-05-15T18:09:50.831Z,16.10
2023-05-15T18:12:19.168Z,16.10
2023-05-15T18:14:47.469Z,16.10
2023-05-15T18:17:16.292Z,16.00
2023-05-15T18:19:46.207Z,16.00
2023-05-15T18:22:14.504Z,15.90
2023-05-15T18:24:42.720Z,15.90
2023-05-15T18:27:11.029Z,15.80
2023-05-15T18:29:39.340Z,15.70
2023-05-15T18:32:07.721Z,15.70
2023-05-15T18:34:35.813Z,15.60
2023-05-15T18:37:06.146Z,15.50
2023-05-15T18:39:34.662Z,15.40
2023-05-15T18:42:03.269Z,15.30
2023-05-15T18:44:32.529Z,15.30
2023-05-15T18:47:01.040Z,15.20
2023-05-15T18:49:30.392Z,15.20
2023-05-15T18:51:59.368Z,15.20
2023-05-15T18:54:29.584Z,15.20
2023-05-15T18:56:58.013Z,15.10
2023-05-15T18:59:27.038Z,15.20
2023-05-15T19:01:55.702Z,15.10
2023-05-15T19:04:23.998Z,15.10
2023-05-15T19:06:52.671Z,15.00
2023-05-15T19:09:21.383Z,15.00
2023-05-15T19:11:52.551Z,14.90
2023-05-15T19:14:20.974Z,14.90
2023-05-15T19:16:55.332Z,14.80
2023-05-15T19:19:23.949Z,14.80
2023-05-15T19:21:53.352Z,14.80
2023-05-15T19:24:22.084Z,14.80
2023-05-15T19:26:52.005Z,14.70
2023-05-15T19:29:20.370Z,14.70
2023-05-15T19:31:48.687Z,14.70
2023-05-15T19:34:17.695Z,14.70
2023-05-15T19:36:47.120Z,14.60
2023-05-15T19:39:15.467Z,14.60
2023-05-15T19:41:44.025Z,14.50
2023-05-15T19:44:13.823Z,14.50
2023-05-15T19:46:42.203Z,14.50
2023-05-15T19:49:11.834Z,14.50
2023-05-15T19:51:41.199Z,14.50
2023-05-15T19:54:11.334Z,14.50
2023-05-15T19:56:39.729Z,14.50
2023-05-15T19:59:08.237Z,14.50
2023-05-15T20:01:38.086Z,14.50
2023-05-15T20:04:06.606Z,14.50
2023-05-15T20:06:35.224Z,14.50
2023-05-15T20:09:04.815Z,14.50
2023-05-15T20:11:33.141Z,14.40
2023-05-15T20:14:01.986Z,14.40
2023-05-15T20:16:30.622Z,14.40
2023-05-15T20:19:00.433Z,14.30
2023-05-15T20:21:28.944Z,14.20
2023-05-15T20:23:58.022Z,14.20
2023-05-15T20:26:26.600Z,15.10
2023-05-15T20:28:55.648Z,14.00
2023-05-15T20:31:23.999Z,14.00
2023-05-15T20:33:52.403Z,14.00
2023-05-15T20:36:25.610Z,13.90
2023-05-15T20:38:55.033Z,13.90
2023-05-15T20:41:24.212Z,13.80
2023-05-15T20:43:52.554Z,14.00
2023-05-15T20:46:20.882Z,13.90
2023-05-15T20:48:49.400Z,13.90
2023-05-15T20:51:17.702Z,13.90
2023-05-15T20:53:47.458Z,13.90
2023-05-15T20:56:15.835Z,13.90
2023-05-15T20:58:44.788Z,13.90
2023-05-15T21:01:12.828Z,13.90
2023-05-15T21:03:41.036Z,13.90
2023-05-15T21:06:09.700Z,13.90
2023-05-15T21:08:37.855Z,13.90
2023-05-15T21:11:07.571Z,13.90
2023-05-15T21:13:35.770Z,13.90
2023-05-15T21:16:03.926Z,13.80
2023-05-15T21:18:32.000Z,13.80
2023-05-15T21:21:00.595Z,13.70
2023-05-15T21:23:28.732Z,13.70
2023-05-15T21:25:56.770Z,13.70
2023-05-15T21:28:26.231Z,13.60
2023-05-15T21:30:54.323Z,13.60
2023-05-15T21:33:22.498Z,13.50
2023-05-15T21:35:51.519Z,13.50
2023-05-15T21:38:19.900Z,13.50
2023-05-15T21:40:48.337Z,13.50
2023-05-15T21:43:16.510Z,13.50
2023-05-15T21:45:45.905Z,13.50
2023-05-15T21:48:14.053Z,13.50
2023-05-15T21:50:42.127Z,13.60
2023-05-15T21:53:10.522Z,13.70
2023-05-15T21:55:39.801Z,13.70
2023-05-15T21:58:08.016Z,13.70
2023-05-15T22:00:36.257Z,13.70
2023-05-15T22:03:06.026Z,13.70
2023-05-15T22:05:34.225Z,13.80
2023-05-15T22:08:02.321Z,13.70
2023-05-15T22:10:30.415Z,13.70
2023-05-15T22:13:02.621Z,13.70
2023-05-15T22:15:30.968Z,13.80
2023-05-15T22:18:00.532Z,13.70
2023-05-15T22:20:30.080Z,13.80
2023-05-15T22:22:58.236Z,13.80
2023-05-15T22:25:26.459Z,13.80
2023-05-15T22:27:54.557Z,13.90
2023-05-15T22:30:22.795Z,13.90
2023-05-15T22:32:51.415Z,13.90
2023-05-15T22:35:20.327Z,14.00
2023-05-15T22:37:49.861Z,14.00
2023-05-15T22:40:18.342Z,14.00
2023-05-15T22:42:50.223Z,14.00
2023-05-15T22:45:19.066Z,14.00
2023-05-15T22:47:47.549Z,14.00
2023-05-15T22:50:16.183Z,14.00
2023-05-15T22:52:44.553Z,14.00
2023-05-15T22:55:14.676Z,13.90
2023-05-15T22:57:43.150Z,13.80
2023-05-15T23:00:12.915Z,13.80
2023-05-15T23:02:43.493Z,13.80
2023-05-15T23:05:13.350Z,13.70
2023-05-15T23:07:41.796Z,13.80
2023-05-15T23:10:10.845Z,13.70
2023-05-15T23:12:40.638Z,13.70
2023-05-15T23:15:10.751Z,13.70
2023-05-15T23:17:39.254Z,13.70
2023-05-15T23:20:10.497Z,13.60
2023-05-15T23:22:39.188Z,13.60
2023-05-15T23:25:08.585Z,13.60
2023-05-15T23:27:36.938Z,13.50
2023-05-15T23:30:07.978Z,13.60
2023-05-15T23:32:36.276Z,13.50
2023-05-15T23:35:04.848Z,12.30
2023-05-15T23:37:33.130Z,13.50
2023-05-15T23:40:01.387Z,13.50
2023-05-15T23:42:31.069Z,13.50
2023-05-15T23:44:59.432Z,13.40
2023-05-15T23:47:29.279Z,13.30
2023-05-15T23:49:57.609Z,13.30
2023-05-15T23:52:25.933Z,13.20
2023-05-15T23:54:54.395Z,13.20
2023-05-15T23:57:22.587Z,13.20
2023-05-15T23:59:50.872Z,13.20
